Campbellsburg, Indiana
Current Conditions -  °F | °C
As of 3:53 PM on Friday 28 Nov 2014 (Local Time) from KBMG Reporting Station
Clear Clear  
Wind Chill: 29°   Ceiling: Unl
Heat Index: 37°   Visibility: 10mi
Dew Point: 24°   Wind: 12mph
Humidity: 59%   Direction: 160°SSE
Pressure: 30.12"   Gusts: NA
Location:  38.65°N, 86.26°W
Report Text: KBMG 282053Z AUTO 16010KT 10SM CLR 03/M04 A3012 RMK AO2 SLP207 T00281044 58039
Loading
Personal Weather Stations






























Interactive Weather Map New forecast layout! Learn more

10-Day Weather Forecast

Advertisements
Track Severe Weather on mobile